sensor_id;sensor_type;location;lat;lon;timestamp;pressure;altitude;pressure_sealevel;temperature;humidity
44839;BME280;30576;42.098;24.876;2022-12-18T00:02:30;100370.13;;;10.04;95.84
44839;BME280;30576;42.098;24.876;2022-12-18T00:04:59;100370.13;;;9.99;94.51
44839;BME280;30576;42.098;24.876;2022-12-18T00:07:25;100376.25;;;10.06;94.10
44839;BME280;30576;42.098;24.876;2022-12-18T00:09:50;100373.63;;;10.01;94.70
44839;BME280;30576;42.098;24.876;2022-12-18T00:12:16;100372.81;;;9.67;96.38
44839;BME280;30576;42.098;24.876;2022-12-18T00:14:49;100383.34;;;9.73;97.24
44839;BME280;30576;42.098;24.876;2022-12-18T00:17:21;100391.25;;;9.85;95.94
44839;BME280;30576;42.098;24.876;2022-12-18T00:19:54;100407.88;;;10.09;94.95
44839;BME280;30576;42.098;24.876;2022-12-18T00:22:24;100418.44;;;10.09;93.39
44839;BME280;30576;42.098;24.876;2022-12-18T00:24:57;100431.63;;;9.78;94.22
44839;BME280;30576;42.098;24.876;2022-12-18T00:27:37;100435.13;;;9.63;97.16
44839;BME280;30576;42.098;24.876;2022-12-18T00:30:12;100431.63;;;9.75;97.61
44839;BME280;30576;42.098;24.876;2022-12-18T00:32:44;100430.75;;;9.89;98.15
44839;BME280;30576;42.098;24.876;2022-12-18T00:35:20;100435.13;;;10.16;96.62
44839;BME280;30576;42.098;24.876;2022-12-18T00:37:46;100435.13;;;9.96;97.75
44839;BME280;30576;42.098;24.876;2022-12-18T00:40:20;100437.78;;;9.94;98.05
44839;BME280;30576;42.098;24.876;2022-12-18T00:42:46;100431.63;;;10.00;98.91
44839;BME280;30576;42.098;24.876;2022-12-18T00:45:24;100437.75;;;10.02;100.00
44839;BME280;30576;42.098;24.876;2022-12-18T00:47:56;100442.13;;;10.28;99.18
44839;BME280;30576;42.098;24.876;2022-12-18T00:53:07;100450.91;;;10.41;97.17
44839;BME280;30576;42.098;24.876;2022-12-18T00:58:28;100442.16;;;10.21;98.92
44839;BME280;30576;42.098;24.876;2022-12-18T01:03:36;100439.50;;;10.43;97.89
44839;BME280;30576;42.098;24.876;2022-12-18T01:06:17;100430.72;;;10.43;95.67
44839;BME280;30576;42.098;24.876;2022-12-18T01:08:53;100428.94;;;10.42;95.62
44839;BME280;30576;42.098;24.876;2022-12-18T01:11:28;100428.13;;;9.73;97.95
44839;BME280;30576;42.098;24.876;2022-12-18T01:14:01;100422.84;;;9.93;98.68
44839;BME280;30576;42.098;24.876;2022-12-18T01:16:37;100427.22;;;9.86;98.17
44839;BME280;30576;42.098;24.876;2022-12-18T01:19:08;100445.66;;;10.10;97.32
44839;BME280;30576;42.098;24.876;2022-12-18T01:21:42;100453.56;;;10.27;96.51
44839;BME280;30576;42.098;24.876;2022-12-18T01:26:54;100446.56;;;10.04;95.99
44839;BME280;30576;42.098;24.876;2022-12-18T01:29:29;100430.75;;;10.02;98.52
44839;BME280;30576;42.098;24.876;2022-12-18T01:32:00;100432.47;;;10.16;96.91
44839;BME280;30576;42.098;24.876;2022-12-18T01:34:27;100430.72;;;10.21;96.16
44839;BME280;30576;42.098;24.876;2022-12-18T01:36:57;100430.72;;;10.26;96.01
44839;BME280;30576;42.098;24.876;2022-12-18T01:39:30;100437.72;;;10.31;95.51
44839;BME280;30576;42.098;24.876;2022-12-18T01:42:13;100435.13;;;9.74;99.76
44839;BME280;30576;42.098;24.876;2022-12-18T01:47:23;100437.78;;;9.93;100.00
44839;BME280;30576;42.098;24.876;2022-12-18T01:49:51;100441.28;;;10.16;99.66
44839;BME280;30576;42.098;24.876;2022-12-18T01:52:23;100438.63;;;10.44;96.34
44839;BME280;30576;42.098;24.876;2022-12-18T01:54:52;100445.63;;;10.30;95.98
44839;BME280;30576;42.098;24.876;2022-12-18T01:57:30;100451.84;;;10.06;97.34
44839;BME280;30576;42.098;24.876;2022-12-18T02:00:03;100443.03;;;10.17;96.82
44839;BME280;30576;42.098;24.876;2022-12-18T02:02:32;100465.91;;;9.95;97.01
44839;BME280;30576;42.098;24.876;2022-12-18T02:04:59;100457.09;;;10.13;97.73
44839;BME280;30576;42.098;24.876;2022-12-18T02:10:25;100465.91;;;9.94;100.00
44839;BME280;30576;42.098;24.876;2022-12-18T02:18:02;100464.13;;;10.33;98.22
44839;BME280;30576;42.098;24.876;2022-12-18T02:20:43;100465.88;;;10.29;97.29
44839;BME280;30576;42.098;24.876;2022-12-18T02:28:45;100480.81;;;10.24;97.73
44839;BME280;30576;42.098;24.876;2022-12-18T02:31:25;100477.28;;;10.41;97.78
44839;BME280;30576;42.098;24.876;2022-12-18T02:34:05;100479.94;;;10.16;96.36
44839;BME280;30576;42.098;24.876;2022-12-18T02:36:35;100478.19;;;10.19;96.55
44839;BME280;30576;42.098;24.876;2022-12-18T02:39:20;100474.63;;;10.30;96.06
44839;BME280;30576;42.098;24.876;2022-12-18T02:44:35;100463.25;;;10.20;95.61
44839;BME280;30576;42.098;24.876;2022-12-18T02:47:13;100471.16;;;10.09;100.00
44839;BME280;30576;42.098;24.876;2022-12-18T02:58:12;100472.91;;;10.46;97.40
44839;BME280;30576;42.098;24.876;2022-12-18T03:03:31;100467.66;;;10.35;97.64
44839;BME280;30576;42.098;24.876;2022-12-18T03:08:45;100463.25;;;10.18;100.00
44839;BME280;30576;42.098;24.876;2022-12-18T03:11:20;100467.63;;;10.32;100.00
44839;BME280;30576;42.098;24.876;2022-12-18T03:14:16;100465.88;;;10.46;99.68
44839;BME280;30576;42.098;24.876;2022-12-18T03:16:52;100468.50;;;10.49;98.89
44839;BME280;30576;42.098;24.876;2022-12-18T03:19:32;100478.13;;;10.60;98.32
44839;BME280;30576;42.098;24.876;2022-12-18T03:21:58;100486.03;;;10.64;97.90
44839;BME280;30576;42.098;24.876;2022-12-18T03:24:35;100484.28;;;10.65;97.24
44839;BME280;30576;42.098;24.876;2022-12-18T03:27:08;100482.50;;;10.74;96.87
44839;BME280;30576;42.098;24.876;2022-12-18T03:29:41;100481.66;;;10.66;98.02
44839;BME280;30576;42.098;24.876;2022-12-18T03:32:15;100487.78;;;10.64;98.01
44839;BME280;30576;42.098;24.876;2022-12-18T03:34:44;100496.56;;;10.73;97.30
44839;BME280;30576;42.098;24.876;2022-12-18T03:37:14;100502.75;;;10.72;95.26
44839;BME280;30576;42.098;24.876;2022-12-18T03:39:52;100498.38;;;10.53;95.16
44839;BME280;30576;42.098;24.876;2022-12-18T03:42:30;100508.06;;;10.17;96.14
44839;BME280;30576;42.098;24.876;2022-12-18T03:48:07;100515.09;;;10.18;95.92
44839;BME280;30576;42.098;24.876;2022-12-18T03:50:47;100525.66;;;10.19;95.54
44839;BME280;30576;42.098;24.876;2022-12-18T03:53:24;100531.78;;;10.31;94.81
44839;BME280;30576;42.098;24.876;2022-12-18T03:55:58;100535.28;;;10.24;94.46
44839;BME280;30576;42.098;24.876;2022-12-18T03:58:33;100539.69;;;10.31;94.80
44839;BME280;30576;42.098;24.876;2022-12-18T04:01:03;100532.66;;;10.54;94.01
44839;BME280;30576;42.098;24.876;2022-12-18T04:03:32;100537.09;;;10.43;93.71
44839;BME280;30576;42.098;24.876;2022-12-18T04:05:59;100538.84;;;10.49;94.09
44839;BME280;30576;42.098;24.876;2022-12-18T04:08:34;100539.69;;;10.65;93.30
44839;BME280;30576;42.098;24.876;2022-12-18T04:11:00;100544.13;;;10.53;92.99
44839;BME280;30576;42.098;24.876;2022-12-18T04:13:45;100539.72;;;10.43;92.93
44839;BME280;30576;42.098;24.876;2022-12-18T04:16:14;100536.22;;;10.39;93.58
44839;BME280;30576;42.098;24.876;2022-12-18T04:18:45;100538.84;;;10.53;92.63
44839;BME280;30576;42.098;24.876;2022-12-18T04:21:23;100550.28;;;10.38;93.14
44839;BME280;30576;42.098;24.876;2022-12-18T04:23:52;100547.63;;;10.40;92.84
44839;BME280;30576;42.098;24.876;2022-12-18T04:26:24;100552.03;;;10.18;92.82
44839;BME280;30576;42.098;24.876;2022-12-18T04:29:02;100547.63;;;10.12;92.71
44839;BME280;30576;42.098;24.876;2022-12-18T04:31:35;100553.75;;;10.20;92.67
44839;BME280;30576;42.098;24.876;2022-12-18T04:34:07;100560.78;;;10.17;92.88
44839;BME280;30576;42.098;24.876;2022-12-18T04:36:39;100558.16;;;10.18;92.70
44839;BME280;30576;42.098;24.876;2022-12-18T04:39:15;100567.81;;;10.06;92.32
44839;BME280;30576;42.098;24.876;2022-12-18T04:41:54;100571.31;;;10.04;92.70
44839;BME280;30576;42.098;24.876;2022-12-18T04:44:24;100572.19;;;9.90;91.80
44839;BME280;30576;42.098;24.876;2022-12-18T04:46:59;100578.34;;;9.89;92.84
44839;BME280;30576;42.098;24.876;2022-12-18T04:49:25;100579.22;;;10.00;92.79
44839;BME280;30576;42.098;24.876;2022-12-18T04:52:02;100585.34;;;9.86;95.45
44839;BME280;30576;42.098;24.876;2022-12-18T04:54:36;100581.81;;;9.69;99.35
44839;BME280;30576;42.098;24.876;2022-12-18T04:57:03;100585.34;;;9.79;100.00
44839;BME280;30576;42.098;24.876;2022-12-18T04:59:30;100590.63;;;9.86;100.00
44839;BME280;30576;42.098;24.876;2022-12-18T05:02:05;100598.53;;;9.86;98.79
44839;BME280;30576;42.098;24.876;2022-12-18T05:04:38;100607.38;;;10.09;98.63
44839;BME280;30576;42.098;24.876;2022-12-18T05:07:11;100611.72;;;9.91;97.90
44839;BME280;30576;42.098;24.876;2022-12-18T05:09:49;100620.50;;;9.85;96.27
44839;BME280;30576;42.098;24.876;2022-12-18T05:12:24;100629.25;;;9.81;97.77
44839;BME280;30576;42.098;24.876;2022-12-18T05:15:00;100625.78;;;9.85;96.39
44839;BME280;30576;42.098;24.876;2022-12-18T05:17:35;100625.75;;;9.78;95.83
44839;BME280;30576;42.098;24.876;2022-12-18T05:20:15;100635.47;;;10.00;94.84
44839;BME280;30576;42.098;24.876;2022-12-18T05:22:45;100642.47;;;9.97;93.06
44839;BME280;30576;42.098;24.876;2022-12-18T05:25:16;100643.34;;;9.96;93.69
44839;BME280;30576;42.098;24.876;2022-12-18T05:27:48;100650.34;;;9.84;93.34
44839;BME280;30576;42.098;24.876;2022-12-18T05:33:13;100651.25;;;9.96;92.12
44839;BME280;30576;42.098;24.876;2022-12-18T05:35:56;100649.53;;;10.01;92.00
44839;BME280;30576;42.098;24.876;2022-12-18T05:38:33;100657.47;;;10.09;91.93
44839;BME280;30576;42.098;24.876;2022-12-18T05:41:15;100665.34;;;10.04;91.88
44839;BME280;30576;42.098;24.876;2022-12-18T05:43:44;100671.50;;;10.01;92.85
44839;BME280;30576;42.098;24.876;2022-12-18T05:46:13;100674.13;;;10.01;92.99
44839;BME280;30576;42.098;24.876;2022-12-18T05:48:44;100685.53;;;9.94;94.06
44839;BME280;30576;42.098;24.876;2022-12-18T05:51:19;100682.00;;;9.94;92.97
44839;BME280;30576;42.098;24.876;2022-12-18T05:53:46;100699.59;;;9.92;92.30
44839;BME280;30576;42.098;24.876;2022-12-18T05:56:13;100689.94;;;10.03;90.97
44839;BME280;30576;42.098;24.876;2022-12-18T05:58:45;100687.28;;;9.95;89.86
44839;BME280;30576;42.098;24.876;2022-12-18T06:01:14;100695.22;;;10.06;89.17
44839;BME280;30576;42.098;24.876;2022-12-18T06:03:44;100695.25;;;10.11;88.46
44839;BME280;30576;42.098;24.876;2022-12-18T06:06:28;100698.75;;;10.13;88.82
44839;BME280;30576;42.098;24.876;2022-12-18T06:09:02;100707.56;;;10.15;87.93
44839;BME280;30576;42.098;24.876;2022-12-18T06:11:37;100706.66;;;10.11;89.36
44839;BME280;30576;42.098;24.876;2022-12-18T06:14:09;100707.63;;;10.29;88.47
44839;BME280;30576;42.098;24.876;2022-12-18T06:16:52;100715.53;;;10.32;87.96
44839;BME280;30576;42.098;24.876;2022-12-18T06:19:21;100717.34;;;10.56;87.00
44839;BME280;30576;42.098;24.876;2022-12-18T06:21:55;100726.16;;;10.52;86.02
44839;BME280;30576;42.098;24.876;2022-12-18T06:24:25;100727.06;;;10.80;85.04
44839;BME280;30576;42.098;24.876;2022-12-18T06:26:54;100727.06;;;10.80;84.25
44839;BME280;30576;42.098;24.876;2022-12-18T06:29:21;100728.78;;;10.58;84.71
44839;BME280;30576;42.098;24.876;2022-12-18T06:31:47;100739.34;;;10.80;85.25
44839;BME280;30576;42.098;24.876;2022-12-18T06:34:16;100741.13;;;10.73;85.23
44839;BME280;30576;42.098;24.876;2022-12-18T06:36:42;100747.22;;;10.56;85.94
44839;BME280;30576;42.098;24.876;2022-12-18T06:39:08;100742.84;;;10.51;86.39
44839;BME280;30576;42.098;24.876;2022-12-18T06:41:36;100753.38;;;10.38;87.25
44839;BME280;30576;42.098;24.876;2022-12-18T06:44:08;100758.69;;;10.55;87.76
44839;BME280;30576;42.098;24.876;2022-12-18T06:46:36;100761.34;;;10.66;87.21
44839;BME280;30576;42.098;24.876;2022-12-18T06:49:03;100759.56;;;10.64;86.84
44839;BME280;30576;42.098;24.876;2022-12-18T06:51:29;100773.66;;;10.53;87.10
44839;BME280;30576;42.098;24.876;2022-12-18T06:53:57;100768.34;;;10.44;87.25
44839;BME280;30576;42.098;24.876;2022-12-18T06:56:26;100770.09;;;10.50;86.95
44839;BME280;30576;42.098;24.876;2022-12-18T06:58:52;100773.66;;;10.69;86.48
44839;BME280;30576;42.098;24.876;2022-12-18T07:01:18;100778.06;;;10.70;84.87
44839;BME280;30576;42.098;24.876;2022-12-18T07:03:43;100775.41;;;10.68;84.77
44839;BME280;30576;42.098;24.876;2022-12-18T07:06:16;100784.19;;;10.72;84.46
44839;BME280;30576;42.098;24.876;2022-12-18T07:08:42;100778.03;;;10.59;84.07
44839;BME280;30576;42.098;24.876;2022-12-18T07:11:08;100778.03;;;10.54;84.12
44839;BME280;30576;42.098;24.876;2022-12-18T07:13:34;100786.81;;;10.60;83.77
44839;BME280;30576;42.098;24.876;2022-12-18T07:16:04;100787.75;;;10.71;83.19
44839;BME280;30576;42.098;24.876;2022-12-18T07:18:30;100793.91;;;10.73;82.95
44839;BME280;30576;42.098;24.876;2022-12-18T07:20:56;100789.47;;;10.73;83.28
44839;BME280;30576;42.098;24.876;2022-12-18T07:23:22;100786.00;;;10.79;82.75
44839;BME280;30576;42.098;24.876;2022-12-18T07:25:48;100796.56;;;10.84;82.48
44839;BME280;30576;42.098;24.876;2022-12-18T07:28:13;100792.13;;;10.78;82.85
44839;BME280;30576;42.098;24.876;2022-12-18T07:30:43;100799.16;;;10.71;82.39
44839;BME280;30576;42.098;24.876;2022-12-18T07:33:10;100793.03;;;10.75;82.60
44839;BME280;30576;42.098;24.876;2022-12-18T07:35:37;100798.31;;;10.71;82.58
44839;BME280;30576;42.098;24.876;2022-12-18T07:38:06;100800.97;;;10.88;82.51
44839;BME280;30576;42.098;24.876;2022-12-18T07:40:35;100815.00;;;10.74;81.83
44839;BME280;30576;42.098;24.876;2022-12-18T07:43:02;100806.25;;;10.82;81.81
44839;BME280;30576;42.098;24.876;2022-12-18T07:45:29;100817.63;;;10.64;81.31
44839;BME280;30576;42.098;24.876;2022-12-18T07:47:54;100811.47;;;10.60;82.01
44839;BME280;30576;42.098;24.876;2022-12-18T07:50:20;100820.25;;;10.54;81.80
44839;BME280;30576;42.098;24.876;2022-12-18T07:52:47;100820.22;;;10.53;80.97
44839;BME280;30576;42.098;24.876;2022-12-18T07:55:15;100817.59;;;10.53;81.07
44839;BME280;30576;42.098;24.876;2022-12-18T07:57:54;100821.09;;;10.56;80.90
44839;BME280;30576;42.098;24.876;2022-12-18T08:00:23;100824.66;;;10.55;80.25
44839;BME280;30576;42.098;24.876;2022-12-18T08:02:51;100829.94;;;10.57;80.35
44839;BME280;30576;42.098;24.876;2022-12-18T08:05:19;100837.81;;;10.52;80.58
44839;BME280;30576;42.098;24.876;2022-12-18T08:07:46;100831.66;;;10.43;81.08
44839;BME280;30576;42.098;24.876;2022-12-18T08:10:14;100845.69;;;10.38;80.43
44839;BME280;30576;42.098;24.876;2022-12-18T08:12:40;100842.22;;;10.49;79.48
44839;BME280;30576;42.098;24.876;2022-12-18T08:15:08;100839.59;;;10.52;79.43
44839;BME280;30576;42.098;24.876;2022-12-18T08:17:35;100847.50;;;10.52;78.46
44839;BME280;30576;42.098;24.876;2022-12-18T08:20:03;100850.97;;;10.42;79.16
44839;BME280;30576;42.098;24.876;2022-12-18T08:22:33;100850.13;;;10.49;79.15
44839;BME280;30576;42.098;24.876;2022-12-18T08:25:02;100855.38;;;10.43;78.93
44839;BME280;30576;42.098;24.876;2022-12-18T08:27:35;100853.66;;;10.49;78.07
44839;BME280;30576;42.098;24.876;2022-12-18T08:30:04;100858.91;;;10.46;78.92
44839;BME280;30576;42.098;24.876;2022-12-18T08:32:32;100860.69;;;10.56;78.74
44839;BME280;30576;42.098;24.876;2022-12-18T08:35:03;100864.28;;;10.74;79.23
44839;BME280;30576;42.098;24.876;2022-12-18T08:37:29;100866.88;;;10.62;79.49
44839;BME280;30576;42.098;24.876;2022-12-18T08:40:02;100869.50;;;10.59;80.55
44839;BME280;30576;42.098;24.876;2022-12-18T08:42:30;100862.38;;;10.39;82.51
44839;BME280;30576;42.098;24.876;2022-12-18T08:45:16;100861.44;;;10.28;83.16
44839;BME280;30576;42.098;24.876;2022-12-18T08:47:44;100864.19;;;10.45;84.72
44839;BME280;30576;42.098;24.876;2022-12-18T08:50:13;100857.13;;;10.42;84.29
44839;BME280;30576;42.098;24.876;2022-12-18T08:52:38;100866.88;;;10.59;84.10
44839;BME280;30576;42.098;24.876;2022-12-18T08:55:04;100864.22;;;10.52;83.84
44839;BME280;30576;42.098;24.876;2022-12-18T08:57:41;100870.38;;;10.59;83.72
44839;BME280;30576;42.098;24.876;2022-12-18T09:00:17;100862.44;;;10.48;83.11
44839;BME280;30576;42.098;24.876;2022-12-18T09:02:49;100868.63;;;10.53;84.02
44839;BME280;30576;42.098;24.876;2022-12-18T09:05:18;100854.47;;;10.36;82.23
44839;BME280;30576;42.098;24.876;2022-12-18T09:07:49;100849.25;;;10.57;82.74
44839;BME280;30576;42.098;24.876;2022-12-18T09:10:17;100847.53;;;10.64;80.43
44839;BME280;30576;42.098;24.876;2022-12-18T09:12:49;100852.84;;;10.86;81.13
44839;BME280;30576;42.098;24.876;2022-12-18T09:15:18;100851.16;;;11.06;80.51
44839;BME280;30576;42.098;24.876;2022-12-18T09:17:43;100859.94;;;11.08;79.62
44839;BME280;30576;42.098;24.876;2022-12-18T09:20:08;100855.53;;;11.07;78.37
44839;BME280;30576;42.098;24.876;2022-12-18T09:22:34;100852.03;;;11.02;78.03
44839;BME280;30576;42.098;24.876;2022-12-18T09:25:03;100853.81;;;11.14;77.80
44839;BME280;30576;42.098;24.876;2022-12-18T09:27:35;100852.03;;;11.25;75.85
44839;BME280;30576;42.098;24.876;2022-12-18T09:30:06;100852.03;;;11.02;75.58
44839;BME280;30576;42.098;24.876;2022-12-18T09:32:36;100850.25;;;11.15;75.03
44839;BME280;30576;42.098;24.876;2022-12-18T09:35:11;100848.53;;;11.14;76.07
44839;BME280;30576;42.098;24.876;2022-12-18T09:37:41;100847.63;;;11.07;74.87
44839;BME280;30576;42.098;24.876;2022-12-18T09:40:12;100859.94;;;11.02;75.67
44839;BME280;30576;42.098;24.876;2022-12-18T09:42:40;100854.66;;;11.04;75.38
44839;BME280;30576;42.098;24.876;2022-12-18T09:45:12;100845.88;;;11.20;75.75
44839;BME280;30576;42.098;24.876;2022-12-18T09:47:45;100857.31;;;11.13;74.74
44839;BME280;30576;42.098;24.876;2022-12-18T09:52:43;100855.53;;;11.00;74.21
44839;BME280;30576;42.098;24.876;2022-12-18T09:55:20;100854.69;;;11.22;73.70
44839;BME280;30576;42.098;24.876;2022-12-18T09:57:51;100856.44;;;11.14;73.73
44839;BME280;30576;42.098;24.876;2022-12-18T10:00:22;100864.34;;;11.05;72.79
44839;BME280;30576;42.098;24.876;2022-12-18T10:02:56;100861.72;;;11.09;73.72
44839;BME280;30576;42.098;24.876;2022-12-18T10:05:35;100858.16;;;11.06;72.78
44839;BME280;30576;42.098;24.876;2022-12-18T10:08:13;100859.94;;;11.07;73.22
44839;BME280;30576;42.098;24.876;2022-12-18T10:10:54;100860.78;;;10.93;72.18
44839;BME280;30576;42.098;24.876;2022-12-18T10:13:39;100860.81;;;11.04;71.96
44839;BME280;30576;42.098;24.876;2022-12-18T10:16:09;100867.84;;;11.01;72.41
44839;BME280;30576;42.098;24.876;2022-12-18T10:18:58;100861.72;;;11.16;71.71
44839;BME280;30576;42.098;24.876;2022-12-18T10:21:30;100875.81;;;11.24;72.55
44839;BME280;30576;42.098;24.876;2022-12-18T10:26:38;100874.94;;;11.16;72.10
44839;BME280;30576;42.098;24.876;2022-12-18T10:29:11;100883.69;;;10.98;70.11
44839;BME280;30576;42.098;24.876;2022-12-18T10:31:37;100878.44;;;11.08;70.99
44839;BME280;30576;42.098;24.876;2022-12-18T10:34:03;100891.63;;;11.05;70.61
44839;BME280;30576;42.098;24.876;2022-12-18T10:36:30;100886.38;;;11.25;70.11
44839;BME280;30576;42.098;24.876;2022-12-18T10:41:48;100891.66;;;11.22;71.08
44839;BME280;30576;42.098;24.876;2022-12-18T10:44:23;100898.72;;;11.20;70.54
44839;BME280;30576;42.098;24.876;2022-12-18T10:47:02;100896.94;;;11.22;70.34
44839;BME280;30576;42.098;24.876;2022-12-18T10:49:38;100897.81;;;11.20;70.33
44839;BME280;30576;42.098;24.876;2022-12-18T10:52:18;100906.63;;;11.16;70.23
44839;BME280;30576;42.098;24.876;2022-12-18T10:55:16;100913.66;;;11.18;72.28
44839;BME280;30576;42.098;24.876;2022-12-18T11:00:39;100914.53;;;11.05;74.45
44839;BME280;30576;42.098;24.876;2022-12-18T11:03:34;100907.47;;;11.01;74.08
44839;BME280;30576;42.098;24.876;2022-12-18T11:06:08;100917.22;;;11.33;74.06
44839;BME280;30576;42.098;24.876;2022-12-18T11:08:37;100923.34;;;11.18;74.02
44839;BME280;30576;42.098;24.876;2022-12-18T11:11:06;100923.25;;;10.84;74.14
44839;BME280;30576;42.098;24.876;2022-12-18T11:13:33;100916.25;;;10.98;73.47
44839;BME280;30576;42.098;24.876;2022-12-18T11:16:02;100919.78;;;10.99;74.53
44839;BME280;30576;42.098;24.876;2022-12-18T11:18:29;100914.47;;;10.89;75.28
44839;BME280;30576;42.098;24.876;2022-12-18T11:20:57;100929.34;;;10.73;76.84
44839;BME280;30576;42.098;24.876;2022-12-18T11:23:23;100926.63;;;10.43;77.73
44839;BME280;30576;42.098;24.876;2022-12-18T11:25:57;100916.84;;;10.32;80.03
44839;BME280;30576;42.098;24.876;2022-12-18T11:28:37;100913.25;;;10.19;80.86
44839;BME280;30576;42.098;24.876;2022-12-18T11:33:40;100933.31;;;10.00;84.44
44839;BME280;30576;42.098;24.876;2022-12-18T11:36:09;100928.09;;;10.08;83.92
44839;BME280;30576;42.098;24.876;2022-12-18T11:38:42;100927.09;;;9.88;84.75
44839;BME280;30576;42.098;24.876;2022-12-18T11:44:22;100936.81;;;9.92;84.92
44839;BME280;30576;42.098;24.876;2022-12-18T11:46:59;100939.50;;;10.02;83.09
44839;BME280;30576;42.098;24.876;2022-12-18T11:49:33;100937.66;;;9.91;82.81
44839;BME280;30576;42.098;24.876;2022-12-18T11:52:23;100942.06;;;9.89;82.59
44839;BME280;30576;42.098;24.876;2022-12-18T11:54:59;100948.19;;;9.89;83.16
44839;BME280;30576;42.098;24.876;2022-12-18T11:57:36;100943.81;;;9.93;82.73
44839;BME280;30576;42.098;24.876;2022-12-18T12:07:55;100954.81;;;10.59;79.54
44839;BME280;30576;42.098;24.876;2022-12-18T12:13:16;100944.38;;;10.82;79.27
44839;BME280;30576;42.098;24.876;2022-12-18T12:26:15;100935.38;;;10.40;80.98
44839;BME280;30576;42.098;24.876;2022-12-18T12:34:34;100944.00;;;10.17;80.61
44839;BME280;30576;42.098;24.876;2022-12-18T12:37:18;100959.78;;;10.14;81.17
44839;BME280;30576;42.098;24.876;2022-12-18T12:40:09;100962.59;;;10.33;80.67
44839;BME280;30576;42.098;24.876;2022-12-18T12:42:42;100966.22;;;10.49;80.24
44839;BME280;30576;42.098;24.876;2022-12-18T12:45:47;100961.78;;;10.45;80.92
44839;BME280;30576;42.098;24.876;2022-12-18T12:48:24;100964.47;;;10.52;81.00
44839;BME280;30576;42.098;24.876;2022-12-18T12:51:00;100980.31;;;10.55;80.64
44839;BME280;30576;42.098;24.876;2022-12-18T12:53:42;100985.59;;;10.57;80.53
44839;BME280;30576;42.098;24.876;2022-12-18T12:56:32;100993.31;;;10.31;82.85
44839;BME280;30576;42.098;24.876;2022-12-18T13:05:00;100996.66;;;10.10;85.87
44839;BME280;30576;42.098;24.876;2022-12-18T13:07:29;100998.50;;;10.18;85.13
44839;BME280;30576;42.098;24.876;2022-12-18T13:10:11;101002.25;;;10.51;83.39
44839;BME280;30576;42.098;24.876;2022-12-18T13:18:09;101011.88;;;10.40;82.51
44839;BME280;30576;42.098;24.876;2022-12-18T13:20:38;101013.72;;;10.58;79.78
44839;BME280;30576;42.098;24.876;2022-12-18T13:31:57;101035.78;;;10.65;79.67
44839;BME280;30576;42.098;24.876;2022-12-18T13:36:47;101035.00;;;10.89;80.62
44839;BME280;30576;42.098;24.876;2022-12-18T13:42:31;101048.75;;;10.34;82.16
44839;BME280;30576;42.098;24.876;2022-12-18T13:45:38;101053.28;;;10.50;82.31
44839;BME280;30576;42.098;24.876;2022-12-18T13:48:15;101061.19;;;10.55;81.51
44839;BME280;30576;42.098;24.876;2022-12-18T13:50:47;101069.28;;;10.78;80.20
44839;BME280;30576;42.098;24.876;2022-12-18T13:56:51;101067.69;;;11.05;78.86
44839;BME280;30576;42.098;24.876;2022-12-18T13:59:39;101073.81;;;11.01;79.11
44839;BME280;30576;42.098;24.876;2022-12-18T14:02:12;101081.63;;;10.82;80.08
44839;BME280;30576;42.098;24.876;2022-12-18T14:04:55;101088.53;;;10.62;76.40
44839;BME280;30576;42.098;24.876;2022-12-18T14:07:26;101088.69;;;10.85;76.63
44839;BME280;30576;42.098;24.876;2022-12-18T14:12:52;101104.41;;;10.68;78.22
44839;BME280;30576;42.098;24.876;2022-12-18T14:21:30;101116.81;;;10.84;78.47
44839;BME280;30576;42.098;24.876;2022-12-18T14:24:19;101122.09;;;10.84;78.90
44839;BME280;30576;42.098;24.876;2022-12-18T14:26:45;101130.09;;;10.95;78.96
44839;BME280;30576;42.098;24.876;2022-12-18T14:32:29;101132.63;;;10.81;78.57
44839;BME280;30576;42.098;24.876;2022-12-18T14:34:59;101130.63;;;10.45;80.00
44839;BME280;30576;42.098;24.876;2022-12-18T14:37:39;101135.75;;;10.32;81.62
44839;BME280;30576;42.098;24.876;2022-12-18T14:40:11;101139.19;;;10.24;83.13
44839;BME280;30576;42.098;24.876;2022-12-18T14:42:40;101139.03;;;10.10;83.04
44839;BME280;30576;42.098;24.876;2022-12-18T14:48:00;101147.78;;;10.01;83.62
44839;BME280;30576;42.098;24.876;2022-12-18T14:50:26;101139.69;;;9.84;83.75
44839;BME280;30576;42.098;24.876;2022-12-18T14:53:02;101145.91;;;9.94;82.73
44839;BME280;30576;42.098;24.876;2022-12-18T14:58:27;101153.06;;;10.02;83.16
44839;BME280;30576;42.098;24.876;2022-12-18T15:00:55;101151.38;;;10.11;82.50
44839;BME280;30576;42.098;24.876;2022-12-18T15:09:01;101143.84;;;9.66;85.32
44839;BME280;30576;42.098;24.876;2022-12-18T15:17:43;101156.88;;;9.54;91.31
44839;BME280;30576;42.098;24.876;2022-12-18T15:20:12;101164.00;;;9.63;91.44
44839;BME280;30576;42.098;24.876;2022-12-18T15:22:43;101171.06;;;9.64;91.40
44839;BME280;30576;42.098;24.876;2022-12-18T15:25:31;101168.34;;;9.58;91.80
44839;BME280;30576;42.098;24.876;2022-12-18T15:28:12;101168.88;;;9.32;93.76
44839;BME280;30576;42.098;24.876;2022-12-18T15:30:57;101173.69;;;9.00;96.61
44839;BME280;30576;42.098;24.876;2022-12-18T15:33:25;101177.88;;;8.85;97.67
44839;BME280;30576;42.098;24.876;2022-12-18T15:36:00;101194.22;;;8.67;99.09
44839;BME280;30576;42.098;24.876;2022-12-18T15:38:32;101199.44;;;8.64;98.42
44839;BME280;30576;42.098;24.876;2022-12-18T15:41:02;101194.03;;;8.56;97.91